Time;durP1;ratioP1;P1;durP2;ratioP2;P2;SDS_P1;SDS_P2;PMS_P1;PMS_P2;Temp;Humidity;BMP_temperature;BMP_pressure;BME280_temperature;BME280_humidity;BME280_pressure;Samples;Min_cycle;Max_cycle;Signal;HPM_P1;HPM_P2
2023/07/29 00:00:55;;;;;;;8.13;5.65;;;18.20;99.90;;;;;;4999890;28;20076;-57
2023/07/29 00:03:22;;;;;;;6.82;5.13;;;18.10;99.90;;;;;;5025733;28;20548;-57
2023/07/29 00:05:48;;;;;;;7.68;5.63;;;18.10;99.90;;;;;;5055122;28;20047;-57
2023/07/29 00:08:14;;;;;;;9.82;5.47;;;18.10;99.90;;;;;;5029259;28;20150;-57
2023/07/29 00:10:40;;;;;;;8.73;5.30;;;18.10;99.90;;;;;;5053363;28;20052;-57
2023/07/29 00:13:07;;;;;;;9.75;5.72;;;18.10;99.90;;;;;;5054864;28;20139;-57
2023/07/29 00:15:33;;;;;;;8.43;5.57;;;18.00;99.90;;;;;;5035343;28;20378;-57
2023/07/29 00:17:59;;;;;;;7.97;5.65;;;18.00;99.90;;;;;;5034936;28;20049;-57
2023/07/29 00:20:25;;;;;;;8.52;5.53;;;18.00;99.90;;;;;;5051600;28;20052;-57
2023/07/29 00:22:53;;;;;;;8.73;5.65;;;18.00;99.90;;;;;;5061316;28;20047;-57
2023/07/29 00:25:20;;;;;;;9.32;5.50;;;18.00;99.90;;;;;;5049805;28;20073;-57
2023/07/29 00:27:46;;;;;;;9.85;5.57;;;18.00;99.90;;;;;;5047002;28;20044;-57
2023/07/29 00:30:13;;;;;;;9.63;5.50;;;17.90;99.90;;;;;;5026188;28;20426;-58
2023/07/29 00:32:39;;;;;;;10.27;5.75;;;17.90;99.90;;;;;;5026633;28;20041;-57
2023/07/29 00:35:06;;;;;;;8.43;5.55;;;17.90;99.90;;;;;;5045251;28;20419;-57
2023/07/29 00:37:32;;;;;;;9.00;5.90;;;17.90;99.90;;;;;;5002601;28;20190;-57
2023/07/29 00:39:58;;;;;;;8.23;6.00;;;17.90;99.90;;;;;;4973800;28;20487;-57
2023/07/29 00:42:25;;;;;;;9.98;5.93;;;17.90;99.90;;;;;;4998558;28;20037;-57
2023/07/29 00:44:51;;;;;;;11.82;5.88;;;17.90;99.90;;;;;;5001144;28;20422;-57
2023/07/29 00:47:17;;;;;;;8.60;5.72;;;17.90;99.90;;;;;;4996101;28;20446;-57
2023/07/29 00:49:44;;;;;;;10.77;5.25;;;17.90;99.90;;;;;;5000138;28;20394;-57
2023/07/29 00:52:12;;;;;;;14.98;5.95;;;17.80;99.90;;;;;;5032807;28;20349;-57
2023/07/29 00:54:42;;;;;;;7.13;5.50;;;17.80;99.90;;;;;;5035285;28;20545;-57
2023/07/29 00:57:14;;;;;;;10.73;5.22;;;17.80;99.90;;;;;;5031361;28;21031;-57
2023/07/29 00:59:40;;;;;;;8.48;5.13;;;17.80;99.90;;;;;;5029361;28;21757;-57
2023/07/29 01:02:07;;;;;;;9.30;5.65;;;17.70;99.90;;;;;;5010321;28;22086;-57
2023/07/29 01:04:33;;;;;;;6.70;5.20;;;17.70;99.90;;;;;;5033851;28;22987;-57
2023/07/29 01:07:22;;;;;;;6.50;5.07;;;17.70;99.90;;;;;;5014764;28;23332;-57
2023/07/29 01:10:19;;;;;;;7.83;5.33;;;17.70;99.90;;;;;;4989424;28;23962;-57
2023/07/29 01:12:57;;;;;;;7.45;4.78;;;17.70;99.90;;;;;;4951738;28;24904;-57
2023/07/29 01:15:41;;;;;;;7.72;5.57;;;17.70;99.90;;;;;;4974880;28;23872;-57
2023/07/29 01:18:31;;;;;;;8.07;5.45;;;17.70;99.90;;;;;;4975585;28;24314;-57
2023/07/29 01:21:04;;;;;;;7.63;5.28;;;17.60;99.90;;;;;;5019297;28;25473;-57
2023/07/29 01:23:35;;;;;;;8.50;5.00;;;17.60;99.90;;;;;;5055673;28;29049;-57
2023/07/29 01:26:03;;;;;;;8.07;5.25;;;17.60;99.90;;;;;;5026936;28;29951;-57
2023/07/29 01:28:30;;;;;;;8.73;5.13;;;17.60;99.90;;;;;;5013923;28;24891;-57
2023/07/29 01:31:14;;;;;;;8.70;5.30;;;17.50;99.90;;;;;;5048483;28;24781;-57
2023/07/29 01:34:08;;;;;;;7.00;5.22;;;17.50;99.90;;;;;;5046613;28;31636;-57
2023/07/29 01:36:39;;;;;;;9.45;5.60;;;17.50;99.90;;;;;;4986623;28;25701;-57
2023/07/29 01:39:05;;;;;;;8.00;5.68;;;17.50;99.90;;;;;;4968264;28;33297;-57
2023/07/29 01:41:32;;;;;;;7.25;5.55;;;17.50;99.90;;;;;;5027821;28;25947;-57
2023/07/29 01:43:58;;;;;;;10.60;5.40;;;17.40;99.90;;;;;;4696905;28;1512509;-57
2023/07/29 01:46:25;;;;;;;8.10;5.13;;;17.40;99.90;;;;;;4707303;29;22479;-57
2023/07/29 01:48:51;;;;;;;12.57;5.03;;;17.40;99.90;;;;;;4820274;29;22499;-57
2023/07/29 01:51:17;;;;;;;10.63;5.68;;;17.40;99.90;;;;;;4883687;29;22929;-57
2023/07/29 01:53:43;;;;;;;7.20;5.43;;;17.40;99.90;;;;;;4878107;28;24570;-57
2023/07/29 01:56:09;;;;;;;9.27;5.80;;;17.30;99.90;;;;;;4905815;28;23813;-57
2023/07/29 01:58:38;;;;;;;6.50;5.47;;;17.30;99.90;;;;;;4919706;28;23955;-57
2023/07/29 02:01:05;;;;;;;10.98;5.18;;;17.30;99.90;;;;;;4979983;28;24535;-57
2023/07/29 02:03:31;;;;;;;9.10;6.30;;;17.30;99.90;;;;;;4996296;28;24957;-57
2023/07/29 02:05:57;;;;;;;7.65;5.60;;;17.30;99.90;;;;;;5014819;28;25016;-57
2023/07/29 02:08:23;;;;;;;8.48;5.43;;;17.20;99.90;;;;;;4983949;28;26420;-57
2023/07/29 02:10:49;;;;;;;8.25;5.60;;;17.20;99.90;;;;;;5016537;28;24979;-57
2023/07/29 02:13:15;;;;;;;10.68;5.60;;;17.20;99.90;;;;;;5008478;28;32134;-57
2023/07/29 02:15:41;;;;;;;7.53;5.35;;;17.20;99.90;;;;;;5011173;28;25031;-57
2023/07/29 02:18:07;;;;;;;8.35;5.50;;;17.20;99.90;;;;;;5015750;28;32848;-57
2023/07/29 02:20:33;;;;;;;8.95;6.03;;;17.10;99.90;;;;;;5023954;28;34466;-57
2023/07/29 02:22:59;;;;;;;7.63;6.13;;;17.10;99.90;;;;;;5027712;28;28429;-57
2023/07/29 02:25:26;;;;;;;10.60;5.53;;;17.10;99.90;;;;;;5009737;28;34132;-57
2023/07/29 02:27:52;;;;;;;8.63;5.53;;;17.10;99.90;;;;;;5012558;28;35650;-57
2023/07/29 02:30:18;;;;;;;8.43;5.82;;;17.10;99.90;;;;;;4987220;28;24962;-57
2023/07/29 02:32:44;;;;;;;6.78;5.20;;;17.10;99.90;;;;;;4999337;28;24451;-57
2023/07/29 02:35:10;;;;;;;12.77;5.88;;;17.10;99.90;;;;;;4988534;28;37205;-57
2023/07/29 02:37:42;;;;;;;11.35;5.55;;;17.10;99.90;;;;;;4993080;28;37629;-57
2023/07/29 02:40:08;;;;;;;8.57;5.80;;;17.10;99.90;;;;;;5029117;28;38193;-57
2023/07/29 02:42:34;;;;;;;10.25;5.20;;;17.00;99.90;;;;;;5006473;28;37451;-57
2023/07/29 02:45:00;;;;;;;7.32;5.75;;;17.00;99.90;;;;;;5020864;28;34034;-57
2023/07/29 02:47:26;;;;;;;8.55;5.45;;;16.90;99.90;;;;;;4991534;28;24967;-57
2023/07/29 02:49:52;;;;;;;10.05;5.35;;;16.90;99.90;;;;;;4936793;28;24672;-57
2023/07/29 02:52:18;;;;;;;8.05;5.28;;;16.90;99.90;;;;;;4944035;28;24893;-57
2023/07/29 02:54:44;;;;;;;8.73;5.80;;;16.90;99.90;;;;;;4924348;28;34437;-57
2023/07/29 02:57:10;;;;;;;11.43;6.85;;;16.90;99.90;;;;;;4945563;28;24941;-57
2023/07/29 02:59:36;;;;;;;11.40;6.63;;;16.90;99.90;;;;;;4991960;28;24865;-57
2023/07/29 03:02:02;;;;;;;11.52;7.10;;;16.80;99.90;;;;;;5020368;28;24744;-57
2023/07/29 03:04:28;;;;;;;8.98;7.10;;;16.90;99.90;;;;;;4986658;28;25005;-57
2023/07/29 03:06:55;;;;;;;9.68;6.75;;;16.80;99.90;;;;;;5005209;28;24812;-57
2023/07/29 03:09:20;;;;;;;9.65;7.18;;;16.90;99.90;;;;;;4979210;28;24883;-57
2023/07/29 03:11:47;;;;;;;7.75;6.68;;;16.90;99.90;;;;;;5001322;28;35942;-57
2023/07/29 03:14:13;;;;;;;9.05;5.93;;;16.80;99.90;;;;;;4998755;28;24893;-57
2023/07/29 03:16:39;;;;;;;7.75;6.55;;;16.90;99.90;;;;;;5021733;28;24850;-57
2023/07/29 03:19:06;;;;;;;8.45;5.55;;;16.90;99.90;;;;;;5003945;28;42487;-57
2023/07/29 03:21:32;;;;;;;9.18;6.00;;;16.80;99.90;;;;;;4949097;28;24904;-57
2023/07/29 03:23:58;;;;;;;8.95;5.93;;;16.80;99.90;;;;;;4936412;28;44852;-58
2023/07/29 03:26:25;;;;;;;9.38;5.93;;;16.80;99.90;;;;;;4726678;29;36606;-57
2023/07/29 03:28:51;;;;;;;9.43;5.75;;;16.80;99.90;;;;;;4672558;29;24622;-57
2023/07/29 03:31:17;;;;;;;11.60;5.88;;;16.90;99.90;;;;;;4671276;29;24438;-57
2023/07/29 03:33:45;;;;;;;7.10;5.55;;;16.90;99.90;;;;;;4791705;29;24575;-57
2023/07/29 03:36:12;;;;;;;10.15;6.32;;;16.80;99.90;;;;;;4847050;28;24948;-57
2023/07/29 03:38:40;;;;;;;9.02;6.00;;;16.80;99.90;;;;;;4912300;28;24903;-57
2023/07/29 03:43:34;;;;;;;8.25;5.90;;;16.80;99.90;;;;;;4972287;28;24656;-57
2023/07/29 03:46:01;;;;;;;7.35;6.05;;;16.80;99.90;;;;;;4963893;28;35847;-57
2023/07/29 03:48:28;;;;;;;9.52;6.00;;;16.80;99.90;;;;;;4985659;28;24742;-57
2023/07/29 03:50:54;;;;;;;8.55;5.28;;;16.80;99.90;;;;;;4983936;28;24777;-57
2023/07/29 03:53:20;;;;;;;9.68;5.45;;;16.80;99.90;;;;;;4919943;28;37182;-57
2023/07/29 03:55:46;;;;;;;9.25;6.25;;;16.80;99.90;;;;;;4904133;28;24935;-57
2023/07/29 03:58:13;;;;;;;9.13;5.90;;;16.80;99.90;;;;;;4902971;28;25113;-57
2023/07/29 04:00:39;;;;;;;10.40;5.68;;;16.80;99.90;;;;;;4707066;28;266528;-57
2023/07/29 04:03:04;;;;;;;8.35;6.70;;;16.90;99.90;;;;;;4685559;29;23373;-57
2023/07/29 04:05:31;;;;;;;9.90;6.10;;;16.90;99.90;;;;;;4724279;29;24089;-57
2023/07/29 04:07:57;;;;;;;7.60;6.20;;;17.00;99.90;;;;;;4759932;29;24135;-57
2023/07/29 04:10:23;;;;;;;8.82;6.20;;;17.00;99.90;;;;;;4848379;28;24497;-57
2023/07/29 04:12:49;;;;;;;10.80;6.30;;;17.00;99.90;;;;;;4904793;28;24446;-57
2023/07/29 04:15:15;;;;;;;9.27;6.47;;;17.00;99.90;;;;;;4964547;28;24538;-57
2023/07/29 04:17:41;;;;;;;11.65;6.95;;;17.00;99.90;;;;;;4967768;28;25018;-57
2023/07/29 04:20:07;;;;;;;8.60;6.57;;;17.10;99.90;;;;;;4980582;28;25456;-57
2023/07/29 04:22:34;;;;;;;10.20;7.18;;;17.10;99.90;;;;;;4972944;28;25567;-57
2023/07/29 04:24:59;;;;;;;12.23;7.32;;;17.10;99.90;;;;;;4991325;28;30110;-57
2023/07/29 04:27:25;;;;;;;13.02;7.90;;;17.20;99.90;;;;;;4978514;28;31158;-57
2023/07/29 04:29:51;;;;;;;14.00;7.57;;;17.20;99.90;;;;;;4986100;28;32587;-57
2023/07/29 04:32:17;;;;;;;10.55;6.85;;;17.20;99.90;;;;;;4957946;28;25832;-57
2023/07/29 04:34:43;;;;;;;17.02;8.63;;;17.30;99.90;;;;;;4953876;28;36340;-57
2023/07/29 04:37:09;;;;;;;15.27;8.20;;;17.40;99.90;;;;;;4964624;28;37048;-57
2023/07/29 04:39:36;;;;;;;13.23;8.35;;;17.50;99.90;;;;;;5011370;28;37025;-57
2023/07/29 04:42:02;;;;;;;12.25;7.10;;;17.50;99.90;;;;;;5003580;28;25496;-57
2023/07/29 04:44:28;;;;;;;10.98;6.60;;;17.60;99.90;;;;;;5027283;28;39407;-57
2023/07/29 04:46:54;;;;;;;6.95;5.82;;;17.60;99.90;;;;;;4990096;28;40279;-58
2023/07/29 04:49:20;;;;;;;7.85;5.90;;;17.60;99.90;;;;;;5003749;28;41535;-57
2023/07/29 04:51:46;;;;;;;8.07;5.90;;;17.70;99.90;;;;;;4975238;28;43407;-57
2023/07/29 04:54:12;;;;;;;11.07;6.40;;;17.70;99.90;;;;;;4996737;28;44273;-57
2023/07/29 04:56:37;;;;;;;10.80;6.50;;;17.80;99.90;;;;;;4995972;28;46269;-57
2023/07/29 04:59:04;;;;;;;10.43;6.28;;;17.90;99.90;;;;;;5025304;28;46963;-57
2023/07/29 05:01:30;;;;;;;11.00;6.30;;;18.10;99.90;;;;;;5012269;28;47953;-57
2023/07/29 05:03:56;;;;;;;11.98;5.95;;;18.20;99.90;;;;;;5021374;28;48427;-57
2023/07/29 05:06:22;;;;;;;10.10;6.18;;;18.20;99.90;;;;;;4974201;28;55847;-57
2023/07/29 05:08:48;;;;;;;13.73;6.25;;;18.30;99.90;;;;;;4942523;28;50200;-57
2023/07/29 05:11:14;;;;;;;9.50;6.28;;;18.30;99.90;;;;;;4942808;28;49344;-57
2023/07/29 05:13:40;;;;;;;10.40;6.43;;;18.40;99.90;;;;;;4966442;28;58910;-57
2023/07/29 05:16:07;;;;;;;15.38;7.22;;;18.50;99.90;;;;;;4942604;28;49254;-57
2023/07/29 05:18:33;;;;;;;14.88;7.68;;;18.60;99.90;;;;;;4934393;28;49638;-57
2023/07/29 05:20:59;;;;;;;14.30;6.72;;;18.70;99.90;;;;;;4944273;28;48572;-57
2023/07/29 05:23:25;;;;;;;13.05;6.85;;;18.90;99.90;;;;;;4930325;28;49712;-57
2023/07/29 05:25:51;;;;;;;13.68;6.50;;;18.90;99.90;;;;;;4927580;28;49365;-57
2023/07/29 05:28:17;;;;;;;19.25;7.10;;;19.00;99.90;;;;;;4905821;28;50033;-57
2023/07/29 05:30:44;;;;;;;15.43;8.02;;;19.10;99.90;;;;;;4930449;28;49833;-57
2023/07/29 05:33:10;;;;;;;12.48;7.22;;;;;;;;;;4941064;28;49825;-57
2023/07/29 05:35:38;;;;;;;12.20;6.70;;;;;;;;;;4881784;28;73924;-57
2023/07/29 05:38:06;;;;;;;13.50;6.20;;;19.50;99.90;;;;;;4891872;28;58397;-57
2023/07/29 05:40:32;;;;;;;15.70;6.72;;;19.40;99.90;;;;;;4877643;28;49920;-57
2023/07/29 05:42:58;;;;;;;10.73;6.60;;;19.50;99.90;;;;;;4888752;28;74714;-57
2023/07/29 05:45:24;;;;;;;17.63;7.65;;;19.60;99.90;;;;;;4911142;28;61110;-57
2023/07/29 05:47:50;;;;;;;13.18;6.88;;;19.70;99.90;;;;;;4873918;28;64240;-57
2023/07/29 05:50:17;;;;;;;17.30;7.30;;;19.90;99.90;;;;;;4898552;28;48722;-57
2023/07/29 05:52:43;;;;;;;14.27;6.93;;;20.00;99.90;;;;;;4903406;28;49066;-57
2023/07/29 05:58:13;;;;;;;19.58;7.82;;;20.00;99.90;;;;;;5152504;27;20618;-57
2023/07/29 06:00:39;;;;;;;12.07;7.32;;;20.10;99.90;;;;;;5128269;27;20035;-57
2023/07/29 06:03:05;;;;;;;14.85;7.28;;;20.20;99.90;;;;;;5037378;28;1509271;-57
2023/07/29 06:05:31;;;;;;;12.68;6.20;;;20.10;99.90;;;;;;5055053;28;20037;-57
2023/07/29 06:07:57;;;;;;;15.48;7.03;;;20.10;99.90;;;;;;5061369;28;20075;-57
2023/07/29 06:10:23;;;;;;;10.23;6.35;;;20.10;99.90;;;;;;5050433;28;23980;-57
2023/07/29 06:12:49;;;;;;;17.70;7.53;;;20.20;99.90;;;;;;5068453;28;20432;-57
2023/07/29 06:15:15;;;;;;;21.27;7.88;;;20.40;99.90;;;;;;5060420;28;20037;-57
2023/07/29 06:17:41;;;;;;;11.90;7.13;;;20.50;99.90;;;;;;5097060;28;20099;-57
2023/07/29 06:20:07;;;;;;;10.35;7.18;;;20.50;99.90;;;;;;5030649;28;20057;-57
2023/07/29 06:22:33;;;;;;;13.18;7.13;;;20.50;99.90;;;;;;5109374;28;20043;-57
2023/07/29 06:24:59;;;;;;;15.15;7.05;;;20.50;99.90;;;;;;5103157;28;20044;-57
2023/07/29 06:27:25;;;;;;;18.98;8.70;;;20.60;99.90;;;;;;5091356;28;20059;-57
2023/07/29 06:29:51;;;;;;;13.68;7.15;;;20.80;99.90;;;;;;5097373;28;20511;-56
2023/07/29 06:32:17;;;;;;;13.23;6.70;;;21.00;99.90;;;;;;5106281;28;20040;-57
2023/07/29 06:34:43;;;;;;;17.73;7.40;;;21.10;99.90;;;;;;5102575;28;20508;-57
2023/07/29 06:37:09;;;;;;;17.63;7.88;;;21.10;99.90;;;;;;5095568;28;20402;-56
2023/07/29 06:39:35;;;;;;;11.55;7.03;;;21.10;99.90;;;;;;5073216;28;20049;-57
2023/07/29 06:42:01;;;;;;;17.23;7.95;;;21.30;99.90;;;;;;5017118;28;20080;-57
2023/07/29 06:44:27;;;;;;;17.23;6.95;;;21.50;99.90;;;;;;5093599;28;20321;-57
2023/07/29 06:46:53;;;;;;;20.30;8.75;;;21.70;99.90;;;;;;5099828;28;20357;-57
2023/07/29 06:49:19;;;;;;;22.83;8.80;;;21.90;99.90;;;;;;5099586;28;20090;-57
2023/07/29 06:51:45;;;;;;;26.35;8.98;;;22.00;99.90;;;;;;5079605;28;20071;-57
2023/07/29 06:54:11;;;;;;;29.60;9.48;;;22.20;99.90;;;;;;5044422;28;20124;-57
2023/07/29 06:56:37;;;;;;;26.00;8.75;;;22.20;99.90;;;;;;5059503;28;20048;-57
2023/07/29 06:59:03;;;;;;;23.65;8.35;;;22.30;99.90;;;;;;5083498;28;20052;-57
2023/07/29 07:01:29;;;;;;;31.02;9.02;;;22.50;99.90;;;;;;5096118;28;20048;-57
2023/07/29 07:03:58;;;;;;;22.50;8.38;;;22.50;99.90;;;;;;5095957;28;20386;-57
2023/07/29 07:06:24;;;;;;;20.48;7.88;;;22.60;99.90;;;;;;5097662;28;20047;-56
2023/07/29 07:08:51;;;;;;;17.35;8.18;;;22.80;99.90;;;;;;5076558;28;20032;-57
2023/07/29 07:11:19;;;;;;;15.00;7.45;;;22.80;99.90;;;;;;5083049;28;20102;-57
2023/07/29 07:13:45;;;;;;;17.98;7.63;;;23.10;99.90;;;;;;5065902;28;20052;-57
2023/07/29 07:16:11;;;;;;;16.38;6.97;;;23.30;99.90;;;;;;5062989;28;20477;-57
2023/07/29 07:18:37;;;;;;;15.90;7.22;;;23.70;99.90;;;;;;5063147;28;20178;-57
2023/07/29 07:21:03;;;;;;;17.13;6.50;;;24.10;99.90;;;;;;5066889;28;20126;-57
2023/07/29 07:23:29;;;;;;;18.15;6.43;;;24.50;99.90;;;;;;5065305;28;20072;-57
2023/07/29 07:25:55;;;;;;;12.80;6.40;;;24.80;99.90;;;;;;5043664;28;20512;-57
2023/07/29 07:28:21;;;;;;;14.65;6.60;;;25.10;99.90;;;;;;5048488;28;20033;-57
2023/07/29 07:30:46;;;;;;;12.85;6.45;;;25.40;99.40;;;;;;5039384;28;20524;-57
2023/07/29 07:33:13;;;;;;;18.23;6.78;;;25.80;98.80;;;;;;5053749;28;20044;-58
2023/07/29 07:35:39;;;;;;;11.10;5.90;;;25.80;97.30;;;;;;5060580;28;20052;-57
2023/07/29 07:38:07;;;;;;;16.85;7.03;;;26.10;97.40;;;;;;5055730;28;20090;-57
2023/07/29 07:40:33;;;;;;;13.90;6.20;;;26.50;96.00;;;;;;5055260;28;20548;-57
2023/07/29 07:42:59;;;;;;;12.02;5.97;;;26.90;92.40;;;;;;5056256;28;21026;-57
2023/07/29 07:45:25;;;;;;;17.33;6.07;;;26.90;91.00;;;;;;5058127;28;21841;-57
2023/07/29 07:47:54;;;;;;;14.05;6.03;;;27.20;92.20;;;;;;5055930;28;22322;-57
2023/07/29 07:50:20;;;;;;;14.23;5.70;;;27.50;90.90;;;;;;5054827;28;22627;-57
2023/07/29 07:52:46;;;;;;;17.20;6.25;;;27.60;90.60;;;;;;5041424;28;23648;-57
2023/07/29 07:55:12;;;;;;;15.02;6.05;;;27.90;87.30;;;;;;5040261;28;24400;-57
2023/07/29 07:57:38;;;;;;;11.00;5.50;;;28.10;87.70;;;;;;5007328;28;28632;-57
2023/07/29 08:00:05;;;;;;;13.07;5.53;;;28.60;86.40;;;;;;5035093;28;29320;-57
2023/07/29 08:02:38;;;;;;;15.25;5.85;;;28.90;79.50;;;;;;5046078;28;28842;-57
2023/07/29 08:05:05;;;;;;;14.73;5.60;;;29.00;75.90;;;;;;5051914;28;25036;-57
2023/07/29 08:07:31;;;;;;;12.15;5.88;;;29.20;76.50;;;;;;5051112;28;31869;-57
2023/07/29 08:09:57;;;;;;;8.93;4.60;;;29.50;81.90;;;;;;5053569;28;31268;-57
2023/07/29 08:12:23;;;;;;;12.05;4.47;;;29.80;70.60;;;;;;5041325;28;33771;-57
2023/07/29 08:14:49;;;;;;;7.82;4.20;;;29.90;68.80;;;;;;5038612;28;34611;-57
2023/07/29 08:17:15;;;;;;;14.00;5.57;;;29.80;68.40;;;;;;5022225;28;25504;-57
2023/07/29 08:19:41;;;;;;;13.70;5.15;;;30.20;67.10;;;;;;5046752;28;36289;-57
2023/07/29 08:22:07;;;;;;;8.90;4.35;;;30.10;65.90;;;;;;5039639;28;36808;-57
2023/07/29 08:24:33;;;;;;;7.20;3.83;;;30.10;58.30;;;;;;5019030;28;37470;-57
2023/07/29 08:26:59;;;;;;;10.23;5.35;;;30.10;62.00;;;;;;5020025;28;38589;-58
2023/07/29 08:29:25;;;;;;;13.23;5.45;;;30.10;61.50;;;;;;5023579;28;39172;-57
2023/07/29 08:31:51;;;;;;;10.68;4.88;;;30.00;59.60;;;;;;5018033;28;25013;-58
2023/07/29 08:34:18;;;;;;;10.48;5.05;;;30.50;59.30;;;;;;5002264;28;40394;-59
2023/07/29 08:36:44;;;;;;;8.25;4.68;;;30.80;62.10;;;;;;5015867;28;41365;-58
2023/07/29 08:39:10;;;;;;;8.07;4.00;;;30.90;55.90;;;;;;5008071;28;42190;-58
2023/07/29 08:42:01;;;;;;;13.27;4.68;;;29.90;53.40;;;;;;4995861;28;42977;-58
2023/07/29 08:44:33;;;;;;;13.07;4.45;;;29.90;53.50;;;;;;4998150;28;44568;-58
2023/07/29 08:46:59;;;;;;;8.20;3.67;;;29.90;57.80;;;;;;5014160;28;46094;-57
2023/07/29 08:49:28;;;;;;;8.77;3.70;;;30.30;51.20;;;;;;5025309;28;46240;-57
2023/07/29 08:51:54;;;;;;;8.93;3.97;;;30.80;53.40;;;;;;5004975;28;24980;-57
2023/07/29 08:54:21;;;;;;;11.38;4.40;;;31.30;50.80;;;;;;5020251;28;48334;-57
2023/07/29 08:56:47;;;;;;;7.22;4.13;;;31.60;48.90;;;;;;5007290;28;49355;-58
2023/07/29 08:59:14;;;;;;;8.85;3.55;;;32.00;47.50;;;;;;5015282;28;49555;-58
2023/07/29 09:01:41;;;;;;;8.00;3.38;;;31.70;44.20;;;;;;5018960;28;49920;-58
2023/07/29 09:04:07;;;;;;;7.43;3.63;;;32.00;49.80;;;;;;5017905;28;49494;-58
2023/07/29 09:06:34;;;;;;;9.70;3.67;;;32.00;45.50;;;;;;5021253;28;36295;-57
2023/07/29 09:09:01;;;;;;;6.97;3.58;;;32.60;45.80;;;;;;5003465;28;49881;-58
2023/07/29 09:11:28;;;;;;;9.40;3.35;;;32.70;45.00;;;;;;5014396;28;38523;-58
2023/07/29 09:13:54;;;;;;;10.90;4.53;;;32.80;43.10;;;;;;5018544;28;50525;-57
2023/07/29 09:16:21;;;;;;;5.60;2.78;;;33.20;42.80;;;;;;5017668;28;63491;-57
2023/07/29 09:18:51;;;;;;;7.05;3.05;;;33.40;42.70;;;;;;5016928;28;49671;-57
2023/07/29 09:21:22;;;;;;;5.35;3.28;;;33.40;40.20;;;;;;5011365;28;66636;-57
2023/07/29 09:23:51;;;;;;;11.63;3.88;;;33.10;42.50;;;;;;4999117;28;49627;-57
2023/07/29 09:26:27;;;;;;;5.35;3.10;;;33.20;41.70;;;;;;4982992;28;48737;-57
2023/07/29 09:28:55;;;;;;;5.72;2.83;;;33.30;40.70;;;;;;5010148;28;49539;-57
2023/07/29 09:31:26;;;;;;;6.82;3.10;;;32.70;41.60;;;;;;5017397;28;49209;-57
2023/07/29 09:34:00;;;;;;;5.82;3.22;;;32.30;38.90;;;;;;5011026;28;49418;-57
2023/07/29 09:36:26;;;;;;;8.30;3.78;;;31.40;38.70;;;;;;4999941;28;49159;-57
2023/07/29 09:38:56;;;;;;;8.18;3.00;;;31.70;42.40;;;;;;4999238;28;73591;-57
2023/07/29 09:41:27;;;;;;;5.32;2.80;;;32.40;46.00;;;;;;4992232;28;50533;-57
2023/07/29 09:43:57;;;;;;;7.18;3.05;;;33.10;39.00;;;;;;5005981;28;74439;-57
2023/07/29 09:46:26;;;;;;;7.72;2.83;;;33.50;44.90;;;;;;5007011;28;74114;-57
2023/07/29 09:48:57;;;;;;;6.07;3.75;;;33.60;45.00;;;;;;4999425;28;49551;-57
2023/07/29 09:51:24;;;;;;;6.57;2.63;;;33.80;41.80;;;;;;5001294;28;31875;-57
2023/07/29 09:53:54;;;;;;;5.25;2.67;;;33.70;39.50;;;;;;4989546;28;49558;-57
2023/07/29 09:56:25;;;;;;;;;;;33.70;38.20;;;;;;4990704;28;49155;-57
2023/07/29 09:58:51;;;;;;;11.77;4.13;;;33.30;36.20;;;;;;4930922;28;49777;-57
2023/07/29 10:01:18;;;;;;;4.35;2.63;;;33.70;37.80;;;;;;5000444;28;49196;-57
2023/07/29 10:03:45;;;;;;;9.88;3.80;;;33.50;37.40;;;;;;4998745;28;24682;-57
2023/07/29 10:06:12;;;;;;;10.48;3.97;;;33.40;37.10;;;;;;4999817;28;36401;-57
2023/07/29 10:08:39;;;;;;;10.35;4.20;;;32.10;37.90;;;;;;4991703;28;49359;-57
2023/07/29 10:11:09;;;;;;;8.80;3.70;;;32.70;40.40;;;;;;4930354;28;48392;-57
2023/07/29 10:13:37;;;;;;;11.75;4.80;;;33.50;37.10;;;;;;4982682;28;38465;-57
2023/07/29 10:16:04;;;;;;;7.20;3.85;;;33.30;35.60;;;;;;4996449;28;24981;-57
2023/07/29 10:18:32;;;;;;;5.93;3.45;;;33.60;39.20;;;;;;4995545;28;49026;-57
2023/07/29 10:20:59;;;;;;;8.85;4.32;;;33.70;41.10;;;;;;4993242;28;39317;-58
2023/07/29 10:23:27;;;;;;;9.68;4.15;;;34.40;41.10;;;;;;4947755;28;49308;-57
2023/07/29 10:26:04;;;;;;;11.10;4.63;;;34.20;38.00;;;;;;4965459;28;48988;-57
2023/07/29 10:28:32;;;;;;;9.20;4.13;;;33.60;36.40;;;;;;4956140;28;48572;-57
2023/07/29 10:30:59;;;;;;;7.97;3.90;;;33.90;37.50;;;;;;4960287;28;24911;-57
2023/07/29 10:33:26;;;;;;;11.05;4.22;;;33.80;36.80;;;;;;4979526;28;24932;-57
2023/07/29 10:35:55;;;;;;;9.15;3.75;;;33.70;39.10;;;;;;4989100;28;24951;-57
2023/07/29 10:38:23;;;;;;;9.40;3.47;;;34.30;37.40;;;;;;4998416;28;24951;-57
2023/07/29 10:40:55;;;;;;;10.73;4.15;;;34.70;36.70;;;;;;4999749;28;48980;-57
2023/07/29 10:43:38;;;;;;;9.45;4.13;;;34.80;38.30;;;;;;4993289;28;43609;-57
2023/07/29 10:46:23;;;;;;;18.20;6.53;;;35.40;37.90;;;;;;5010904;28;48865;-57
2023/07/29 10:48:55;;;;;;;8.27;3.75;;;35.30;38.10;;;;;;5003028;28;46515;-57
2023/07/29 10:51:23;;;;;;;10.52;4.00;;;35.20;38.10;;;;;;5011226;28;48819;-57
2023/07/29 10:53:58;;;;;;;5.85;3.22;;;34.60;35.20;;;;;;4999265;28;28025;-57
2023/07/29 10:56:32;;;;;;;7.60;3.50;;;34.60;36.10;;;;;;4989736;28;27768;-57
2023/07/29 10:59:16;;;;;;;10.40;4.25;;;33.60;35.60;;;;;;5005747;28;49871;-57
2023/07/29 11:01:50;;;;;;;8.75;4.50;;;34.50;42.10;;;;;;4959429;28;48335;-57
2023/07/29 11:04:25;;;;;;;13.55;4.32;;;34.70;36.30;;;;;;4976010;28;31888;-57
2023/07/29 11:10:02;;;;;;;11.15;3.88;;;35.10;38.60;;;;;;5152827;27;20145;-57
2023/07/29 11:12:38;;;;;;;7.80;4.15;;;35.00;34.90;;;;;;5134826;27;20082;-58
2023/07/29 11:15:12;;;;;;;15.32;5.97;;;35.20;35.50;;;;;;5108102;28;20048;-58
2023/07/29 11:17:50;;;;;;;17.77;5.13;;;35.10;38.40;;;;;;5094175;27;20051;-57
2023/07/29 11:20:18;;;;;;;10.45;4.18;;;35.40;33.60;;;;;;5086754;28;20044;-57
2023/07/29 11:22:44;;;;;;;9.52;4.00;;;35.50;34.00;;;;;;5055189;28;20052;-57
2023/07/29 11:25:14;;;;;;;15.40;4.72;;;35.40;33.00;;;;;;5078251;28;20036;-57
2023/07/29 11:27:40;;;;;;;;;;;35.00;34.00;;;;;;5098027;28;20480;-57
2023/07/29 11:30:11;;;;;;;9.48;3.65;;;35.50;33.40;;;;;;5104246;28;19919;-58
2023/07/29 11:32:39;;;;;;;8.68;3.42;;;35.80;34.00;;;;;;5099172;28;20389;-58
2023/07/29 11:35:07;;;;;;;7.22;3.78;;;35.90;34.10;;;;;;5102870;28;20052;-58
2023/07/29 11:37:34;;;;;;;8.68;3.65;;;35.40;33.90;;;;;;5102448;28;20032;-58
2023/07/29 11:40:01;;;;;;;14.30;4.88;;;35.20;36.00;;;;;;5101757;28;20488;-59
2023/07/29 11:42:28;;;;;;;8.13;4.30;;;34.70;35.10;;;;;;5102543;28;20408;-58
2023/07/29 11:44:58;;;;;;;13.13;3.55;;;34.70;33.80;;;;;;5100989;28;20382;-58
2023/07/29 11:47:23;;;;;;;;;;;35.10;34.80;;;;;;5074500;28;20056;-58
2023/07/29 11:49:49;;;;;;;8.65;3.65;;;35.60;34.40;;;;;;5097602;28;19920;-58
2023/07/29 11:52:18;;;;;;;7.65;4.03;;;35.80;33.20;;;;;;5100507;28;20044;-58
2023/07/29 11:54:46;;;;;;;45.40;8.05;;;35.70;35.60;;;;;;5098128;28;20036;-59
2023/07/29 11:57:14;;;;;;;10.60;3.85;;;35.80;36.60;;;;;;5087193;28;20039;-59
2023/07/29 11:59:41;;;;;;;7.18;3.10;;;34.60;31.20;;;;;;5093951;28;20075;-59
2023/07/29 12:02:18;;;;;;;6.97;3.47;;;33.80;34.90;;;;;;5097359;28;20110;-59
2023/07/29 12:04:47;;;;;;;9.35;3.75;;;34.80;34.10;;;;;;5096053;28;20052;-59
2023/07/29 12:07:14;;;;;;;6.55;3.50;;;35.20;36.40;;;;;;5091068;28;20404;-58
2023/07/29 12:09:41;;;;;;;8.77;4.10;;;35.30;32.70;;;;;;5096067;28;20489;-59
2023/07/29 12:12:08;;;;;;;8.07;3.75;;;35.30;32.90;;;;;;5095596;28;20050;-59
2023/07/29 12:14:34;;;;;;;6.78;3.78;;;34.90;36.10;;;;;;5095366;28;20050;-59
2023/07/29 12:17:05;;;;;;;8.15;3.55;;;35.30;33.90;;;;;;5036094;28;20050;-59
2023/07/29 12:19:36;;;;;;;9.07;3.70;;;35.10;34.90;;;;;;5044797;28;20114;-59
2023/07/29 12:22:04;;;;;;;19.52;8.02;;;35.00;38.60;;;;;;5034376;28;20482;-59
2023/07/29 12:24:31;;;;;;;12.90;4.10;;;34.50;34.60;;;;;;5051698;28;20116;-59
2023/07/29 12:26:57;;;;;;;8.98;3.92;;;34.40;35.00;;;;;;5056549;28;20048;-59
2023/07/29 12:29:23;;;;;;;6.13;3.33;;;35.00;37.70;;;;;;5040186;28;20049;-59
2023/07/29 12:31:58;;;;;;;9.45;3.85;;;35.40;35.40;;;;;;5046953;28;20076;-59
2023/07/29 12:34:26;;;;;;;8.50;3.65;;;35.80;32.40;;;;;;5051512;28;20036;-59
2023/07/29 12:36:52;;;;;;;12.32;4.57;;;35.50;32.00;;;;;;5058239;28;20040;-59
2023/07/29 12:39:28;;;;;;;5.78;3.50;;;35.70;33.90;;;;;;5051587;28;20115;-59
2023/07/29 12:41:56;;;;;;;19.95;5.50;;;35.50;33.50;;;;;;5057226;28;20131;-59
2023/07/29 12:44:48;;;;;;;8.73;3.25;;;34.70;35.90;;;;;;5057639;28;20048;-59
2023/07/29 12:47:14;;;;;;;9.63;4.57;;;35.30;35.50;;;;;;5029920;28;20163;-59
2023/07/29 12:49:40;;;;;;;10.82;4.10;;;35.10;34.10;;;;;;5050667;28;21203;-59
2023/07/29 12:52:07;;;;;;;10.70;4.32;;;35.30;33.80;;;;;;5052978;28;21159;-59
2023/07/29 12:54:33;;;;;;;7.55;4.07;;;35.30;33.00;;;;;;5056410;28;21367;-59